createdAt,value
2022-12-14T00:01:45.142Z,-5.20
2022-12-14T00:04:16.600Z,-5.10
2022-12-14T00:06:43.651Z,-5.20
2022-12-14T00:09:10.699Z,-5.20
2022-12-14T00:11:37.890Z,-5.10
2022-12-14T00:14:05.719Z,-5.00
2022-12-14T00:16:35.277Z,-4.90
2022-12-14T00:19:04.490Z,-5.00
2022-12-14T00:21:31.627Z,-5.00
2022-12-14T00:23:59.744Z,-5.00
2022-12-14T00:26:31.457Z,-4.90
2022-12-14T00:29:01.210Z,-4.90
2022-12-14T00:31:29.595Z,-4.80
2022-12-14T00:33:56.787Z,-4.70
2022-12-14T00:36:24.410Z,-4.90
2022-12-14T00:38:51.574Z,-5.00
2022-12-14T00:41:18.936Z,-5.00
2022-12-14T00:43:49.163Z,-5.00
2022-12-14T00:46:17.877Z,-4.90
2022-12-14T00:48:46.206Z,-4.90
2022-12-14T00:51:15.096Z,-5.00
2022-12-14T00:53:44.189Z,-4.90
2022-12-14T00:56:11.628Z,-4.90
2022-12-14T00:58:38.701Z,-4.80
2022-12-14T01:01:12.376Z,-4.80
2022-12-14T01:03:39.750Z,-4.90
2022-12-14T01:06:14.036Z,-4.90
2022-12-14T01:08:41.288Z,-4.90
2022-12-14T01:11:10.223Z,-4.90
2022-12-14T01:13:39.283Z,-5.00
2022-12-14T01:16:15.027Z,-5.10
2022-12-14T01:18:43.725Z,-5.10
2022-12-14T01:21:20.832Z,-5.00
2022-12-14T01:23:52.409Z,-4.80
2022-12-14T01:26:20.423Z,-4.70
2022-12-14T01:28:49.047Z,-4.60
2022-12-14T01:31:19.666Z,-4.70
2022-12-14T01:33:48.155Z,-4.90
2022-12-14T01:36:19.252Z,-4.90
2022-12-14T01:38:47.161Z,-4.90
2022-12-14T01:41:44.281Z,-5.00
2022-12-14T01:44:11.311Z,-4.90
2022-12-14T01:46:42.032Z,-4.90
2022-12-14T01:49:15.244Z,-4.90
2022-12-14T01:51:50.349Z,-4.90
2022-12-14T01:54:17.478Z,-4.90
2022-12-14T01:56:46.569Z,-4.70
2022-12-14T01:59:25.902Z,-4.50
2022-12-14T02:01:54.238Z,-4.40
2022-12-14T02:04:21.923Z,-4.40
2022-12-14T02:06:54.121Z,-4.40
2022-12-14T02:09:31.815Z,-4.30
2022-12-14T02:12:14.209Z,-4.30
2022-12-14T02:14:41.924Z,-4.30
2022-12-14T02:17:11.514Z,-4.30
2022-12-14T02:19:40.060Z,-4.20
2022-12-14T02:22:25.184Z,-4.50
2022-12-14T02:25:23.291Z,-5.10
2022-12-14T02:28:17.327Z,-5.20
2022-12-14T02:30:58.657Z,-5.20
2022-12-14T02:34:39.933Z,-5.40
2022-12-14T02:37:49.966Z,-5.40
2022-12-14T02:40:28.635Z,-5.30
2022-12-14T02:44:00.386Z,-5.20
2022-12-14T02:46:52.225Z,-5.00
2022-12-14T02:49:53.448Z,-4.90
2022-12-14T02:52:52.797Z,-4.70
2022-12-14T02:55:39.174Z,-4.60
2022-12-14T02:58:17.979Z,-4.30
2022-12-14T03:00:45.539Z,-4.20
2022-12-14T03:03:12.752Z,-4.20
2022-12-14T03:05:39.922Z,-4.10
2022-12-14T03:08:12.494Z,-4.10
2022-12-14T03:10:53.195Z,-4.00
2022-12-14T03:13:54.321Z,-3.90
2022-12-14T03:16:33.711Z,-3.80
2022-12-14T03:19:15.051Z,-3.80
2022-12-14T03:21:50.996Z,-3.70
2022-12-14T03:24:27.429Z,-3.80
2022-12-14T03:27:05.615Z,-3.70
2022-12-14T03:29:41.357Z,-3.70
2022-12-14T03:32:23.044Z,-3.70
2022-12-14T03:34:59.611Z,-3.70
2022-12-14T03:37:58.929Z,-3.80
2022-12-14T03:40:42.758Z,-3.70
2022-12-14T03:43:17.582Z,-3.70
2022-12-14T03:45:52.850Z,-3.60
2022-12-14T03:48:38.081Z,-3.60
2022-12-14T03:51:18.503Z,-3.60
2022-12-14T03:54:21.936Z,-3.50
2022-12-14T03:57:08.048Z,-3.60
2022-12-14T03:59:54.194Z,-3.70
2022-12-14T04:02:40.795Z,-3.70
2022-12-14T04:05:41.760Z,-3.60
2022-12-14T04:09:05.825Z,-3.70
2022-12-14T04:12:02.408Z,-3.70
2022-12-14T04:14:54.730Z,-3.70
2022-12-14T04:17:48.620Z,-3.60
2022-12-14T04:20:46.248Z,-3.60
2022-12-14T04:23:41.868Z,-3.70
2022-12-14T04:26:13.841Z,-3.60
2022-12-14T04:29:09.492Z,-3.60
2022-12-14T04:31:39.682Z,-3.60
2022-12-14T04:34:10.744Z,-3.60
2022-12-14T04:36:42.330Z,-3.50
2022-12-14T04:39:31.548Z,-3.80
2022-12-14T04:42:03.013Z,-3.70
2022-12-14T04:44:37.947Z,-3.90
2022-12-14T04:47:09.964Z,-3.80
2022-12-14T04:49:53.476Z,-3.80
2022-12-14T04:52:33.237Z,-3.70
2022-12-14T04:55:21.897Z,-3.70
2022-12-14T04:57:59.304Z,-3.70
2022-12-14T05:00:27.528Z,-3.70
2022-12-14T05:03:17.200Z,-3.70
2022-12-14T05:06:06.514Z,-3.60
2022-12-14T05:09:08.893Z,-3.60
2022-12-14T05:11:55.671Z,-3.70
2022-12-14T05:14:49.803Z,-3.70
2022-12-14T05:17:17.344Z,-3.80
2022-12-14T05:19:49.856Z,-3.70
2022-12-14T05:22:18.430Z,-3.70
2022-12-14T05:24:45.461Z,-3.60
2022-12-14T05:27:12.955Z,-3.60
2022-12-14T05:29:40.123Z,-3.50
2022-12-14T05:32:09.932Z,-3.50
2022-12-14T05:34:37.004Z,-3.50
2022-12-14T05:37:04.237Z,-3.60
2022-12-14T05:39:31.439Z,-3.50
2022-12-14T05:41:58.626Z,-3.50
2022-12-14T05:44:25.968Z,-3.60
2022-12-14T05:46:53.989Z,-3.50
2022-12-14T05:49:21.158Z,-3.60
2022-12-14T05:51:49.445Z,-3.50
2022-12-14T05:54:16.737Z,-3.50
2022-12-14T05:56:44.001Z,-3.60
2022-12-14T05:59:15.606Z,-3.50
2022-12-14T06:01:44.251Z,-3.50
2022-12-14T06:04:15.799Z,-3.50
2022-12-14T06:06:43.426Z,-3.40
2022-12-14T06:09:15.715Z,-3.50
2022-12-14T06:11:43.813Z,-3.50
2022-12-14T06:14:11.826Z,-3.50
2022-12-14T06:16:44.806Z,-3.50
2022-12-14T06:19:13.555Z,-3.60
2022-12-14T06:21:42.752Z,-3.50
2022-12-14T06:24:12.501Z,-3.60
2022-12-14T06:26:42.807Z,-3.40
2022-12-14T06:29:21.116Z,-3.50
2022-12-14T06:31:49.509Z,-3.50
2022-12-14T06:34:18.031Z,-3.40
2022-12-14T06:36:47.032Z,-3.40
2022-12-14T06:39:16.814Z,-3.40
2022-12-14T06:41:44.501Z,-3.40
2022-12-14T06:44:14.502Z,-3.30
2022-12-14T06:46:42.211Z,-3.20
2022-12-14T06:49:16.440Z,-3.20
2022-12-14T06:51:44.032Z,-3.20
2022-12-14T06:54:12.712Z,-3.10
2022-12-14T06:56:41.608Z,-3.10
2022-12-14T06:59:09.300Z,-3.10
2022-12-14T07:01:38.362Z,-3.20
2022-12-14T07:04:06.761Z,-3.20
2022-12-14T07:06:38.497Z,-3.10
2022-12-14T07:09:08.035Z,-3.10
2022-12-14T07:11:35.292Z,-3.10
2022-12-14T07:14:06.166Z,-3.20
2022-12-14T07:16:35.744Z,-3.00
2022-12-14T07:19:03.980Z,-3.00
2022-12-14T07:21:31.133Z,-3.10
2022-12-14T07:24:01.299Z,-3.00
2022-12-14T07:26:29.234Z,-2.90
2022-12-14T07:29:00.617Z,-3.00
2022-12-14T07:31:29.742Z,-3.00
2022-12-14T07:34:00.423Z,-3.00
2022-12-14T07:36:29.893Z,-2.90
2022-12-14T07:38:57.568Z,-2.70
2022-12-14T07:41:31.257Z,-2.90
2022-12-14T07:44:00.932Z,-2.80
2022-12-14T07:46:30.711Z,-2.60
2022-12-14T07:48:59.255Z,-2.60
2022-12-14T07:51:36.257Z,-2.50
2022-12-14T07:54:05.964Z,-2.40
2022-12-14T07:56:37.027Z,-2.40
2022-12-14T07:59:06.720Z,-2.40
2022-12-14T08:01:36.394Z,-2.30
2022-12-14T08:04:10.576Z,-2.10
2022-12-14T08:06:38.907Z,-2.10
2022-12-14T08:09:07.660Z,-1.90
2022-12-14T08:11:35.349Z,-2.00
2022-12-14T08:14:10.941Z,-2.10
2022-12-14T08:16:38.183Z,-2.00
2022-12-14T08:19:05.507Z,-2.20
2022-12-14T08:21:33.025Z,-2.10
2022-12-14T08:24:00.451Z,-2.00
2022-12-14T08:26:34.893Z,-2.00
2022-12-14T08:29:03.769Z,-2.00
2022-12-14T08:31:32.062Z,-1.90
2022-12-14T08:34:01.395Z,-1.90
2022-12-14T08:36:32.860Z,-1.90
2022-12-14T08:39:09.998Z,-2.00
2022-12-14T08:41:37.368Z,-2.00
2022-12-14T08:44:05.125Z,-1.90
2022-12-14T08:46:34.925Z,-1.80
2022-12-14T08:49:02.258Z,-1.80
2022-12-14T08:51:29.905Z,-1.70
2022-12-14T08:53:58.376Z,-1.50
2022-12-14T08:56:28.199Z,-1.30
2022-12-14T08:58:56.627Z,-1.30
2022-12-14T09:01:32.854Z,-1.20
2022-12-14T09:04:08.012Z,-1.10
2022-12-14T09:06:39.105Z,-1.10
2022-12-14T09:09:15.605Z,-1.00
2022-12-14T09:11:44.556Z,-0.90
2022-12-14T09:14:12.402Z,-0.70
2022-12-14T09:16:40.384Z,-0.60
2022-12-14T09:19:07.736Z,-0.70
2022-12-14T09:21:35.076Z,-0.40
2022-12-14T09:24:02.184Z,-0.40
2022-12-14T09:26:29.978Z,-0.40
2022-12-14T09:28:58.255Z,-0.40
2022-12-14T09:31:28.011Z,-0.40
2022-12-14T09:33:56.250Z,-0.30
2022-12-14T09:36:28.448Z,-0.30
2022-12-14T09:38:57.858Z,-0.30
2022-12-14T09:41:36.487Z,-0.20
2022-12-14T09:44:27.993Z,0.10
2022-12-14T09:47:47.037Z,0.30
2022-12-14T09:50:20.769Z,0.50
2022-12-14T09:52:53.390Z,0.50
2022-12-14T09:55:22.962Z,0.40
2022-12-14T09:58:23.578Z,0.50
2022-12-14T10:01:43.564Z,0.70
2022-12-14T10:04:16.592Z,0.80
2022-12-14T10:07:06.050Z,1.10
2022-12-14T10:10:02.714Z,1.00
2022-12-14T10:13:01.917Z,1.10
2022-12-14T10:15:53.690Z,1.50
2022-12-14T10:19:01.979Z,1.40
2022-12-14T10:21:47.396Z,1.70
2022-12-14T10:24:23.231Z,1.40
2022-12-14T10:26:55.810Z,1.20
2022-12-14T10:29:25.942Z,1.40
2022-12-14T10:32:02.401Z,1.60
2022-12-14T10:34:31.487Z,1.60
2022-12-14T10:37:25.811Z,1.50
2022-12-14T10:40:19.769Z,1.50
2022-12-14T10:43:21.046Z,1.50
2022-12-14T10:46:19.362Z,1.30
2022-12-14T10:49:32.953Z,1.20
2022-12-14T10:52:12.418Z,1.30
2022-12-14T10:54:47.093Z,1.10
2022-12-14T10:57:20.113Z,1.00
2022-12-14T11:00:07.339Z,1.30
2022-12-14T11:02:41.266Z,1.10
2022-12-14T11:05:41.488Z,1.20
2022-12-14T11:08:09.347Z,1.30
2022-12-14T11:10:39.751Z,1.50
2022-12-14T11:13:19.880Z,1.40
2022-12-14T11:15:51.032Z,1.40
2022-12-14T11:18:18.180Z,1.40
2022-12-14T11:20:52.735Z,1.40
2022-12-14T11:23:29.969Z,1.30
2022-12-14T11:26:03.821Z,1.50
2022-12-14T11:28:50.483Z,1.40
2022-12-14T11:31:20.625Z,1.10
2022-12-14T11:33:51.093Z,1.20
2022-12-14T11:36:38.805Z,0.90
2022-12-14T11:39:20.880Z,0.80
2022-12-14T11:42:01.382Z,1.00
2022-12-14T11:44:36.443Z,1.20
2022-12-14T11:47:13.699Z,1.00
2022-12-14T11:49:41.057Z,1.20
2022-12-14T11:52:46.092Z,1.30
2022-12-14T11:55:26.253Z,1.10
2022-12-14T11:57:57.907Z,1.00
2022-12-14T12:00:47.738Z,1.00
2022-12-14T12:03:26.446Z,1.30
2022-12-14T12:05:59.861Z,1.40
2022-12-14T12:08:30.112Z,1.40
2022-12-14T12:11:02.543Z,1.30
2022-12-14T12:13:41.091Z,1.20
2022-12-14T12:16:14.884Z,1.20
2022-12-14T12:18:56.319Z,1.20
2022-12-14T12:21:30.248Z,1.10
2022-12-14T12:24:26.348Z,1.10
2022-12-14T12:26:58.737Z,0.90
2022-12-14T12:29:45.580Z,0.90
2022-12-14T12:32:50.518Z,1.10
2022-12-14T12:35:36.774Z,1.00
2022-12-14T12:38:13.894Z,1.00
2022-12-14T12:41:01.268Z,0.80
2022-12-14T12:43:42.448Z,1.00
2022-12-14T12:46:18.617Z,0.60
2022-12-14T12:48:53.850Z,0.50
2022-12-14T12:51:27.168Z,0.60
2022-12-14T12:54:06.293Z,0.60
2022-12-14T12:56:48.197Z,0.60
2022-12-14T12:59:35.627Z,0.80
2022-12-14T13:02:30.998Z,0.80
2022-12-14T13:05:29.042Z,0.80
2022-12-14T13:07:57.464Z,0.80
2022-12-14T13:10:42.047Z,0.90
2022-12-14T13:13:22.806Z,0.80
2022-12-14T13:15:54.209Z,0.80
2022-12-14T13:18:49.253Z,0.70
2022-12-14T13:21:35.267Z,0.80
2022-12-14T13:24:18.010Z,0.80
2022-12-14T13:27:17.671Z,0.70
2022-12-14T13:29:47.833Z,0.60
2022-12-14T13:32:45.564Z,0.60
2022-12-14T13:35:36.863Z,0.70
2022-12-14T13:38:35.235Z,0.60
2022-12-14T13:41:50.778Z,0.40
2022-12-14T13:44:41.989Z,0.70
2022-12-14T13:47:20.282Z,0.80
2022-12-14T13:50:34.765Z,0.60
2022-12-14T13:52:48.142Z,0.80
2022-12-14T13:55:39.323Z,0.80
2022-12-14T13:58:35.836Z,0.50
2022-12-14T14:01:36.710Z,0.80
2022-12-14T14:04:16.104Z,0.80
2022-12-14T14:06:45.387Z,0.70
2022-12-14T14:09:33.591Z,0.50
2022-12-14T14:12:04.471Z,0.70
2022-12-14T14:14:47.848Z,0.70
2022-12-14T14:17:41.914Z,0.70
2022-12-14T14:20:31.008Z,0.60
2022-12-14T14:23:16.275Z,0.60
2022-12-14T14:25:51.915Z,0.70
2022-12-14T14:28:23.216Z,0.70
2022-12-14T14:30:59.781Z,0.70
2022-12-14T14:33:48.396Z,0.60
2022-12-14T14:36:35.233Z,0.70
2022-12-14T14:42:25.830Z,0.80
2022-12-14T14:44:57.440Z,0.70
2022-12-14T14:47:35.971Z,0.50
2022-12-14T14:50:22.140Z,0.50
2022-12-14T14:53:18.374Z,0.70
2022-12-14T14:56:00.703Z,0.70
2022-12-14T14:58:38.428Z,0.50
2022-12-14T15:01:16.138Z,0.60
2022-12-14T15:04:06.662Z,0.60
2022-12-14T15:06:41.112Z,0.60
2022-12-14T15:09:30.996Z,0.60
2022-12-14T15:12:07.066Z,0.60
2022-12-14T15:14:48.219Z,0.50
2022-12-14T15:17:24.424Z,0.50
2022-12-14T15:19:59.916Z,0.50
2022-12-14T15:22:43.609Z,0.50
2022-12-14T15:25:23.774Z,0.40
2022-12-14T15:27:52.177Z,0.40
2022-12-14T15:30:27.765Z,0.40
2022-12-14T15:33:01.749Z,0.50
2022-12-14T15:35:42.795Z,0.30
2022-12-14T15:38:20.628Z,0.30
2022-12-14T15:40:59.965Z,0.30
2022-12-14T15:43:28.334Z,0.30
2022-12-14T15:46:04.627Z,0.30
2022-12-14T15:48:35.063Z,0.20
2022-12-14T15:51:06.556Z,0.10
2022-12-14T15:53:49.854Z,0.20
2022-12-14T15:56:32.853Z,0.20
2022-12-14T15:59:04.287Z,0.20
2022-12-14T16:01:54.406Z,0.20
2022-12-14T16:04:27.890Z,0.30
2022-12-14T16:07:09.152Z,0.20
2022-12-14T16:09:50.128Z,0.20
2022-12-14T16:12:45.420Z,0.20
2022-12-14T16:15:29.495Z,0.20
2022-12-14T16:18:02.230Z,0.20
2022-12-14T16:20:34.475Z,0.30
2022-12-14T16:23:13.140Z,0.20
2022-12-14T16:26:15.631Z,0.20
2022-12-14T16:28:42.797Z,0.30
2022-12-14T16:31:22.957Z,0.20
2022-12-14T16:34:15.015Z,0.10
2022-12-14T16:36:48.207Z,0.10
2022-12-14T16:39:24.249Z,0.10
2022-12-14T16:42:02.777Z,0.10
2022-12-14T16:44:32.368Z,0.00
2022-12-14T16:47:05.300Z,-0.10
2022-12-14T16:49:41.406Z,0.00
2022-12-14T16:52:30.500Z,0.00
2022-12-14T16:55:17.105Z,-0.10
2022-12-14T16:57:58.571Z,-0.10
2022-12-14T17:00:36.205Z,-0.10
2022-12-14T17:03:17.645Z,-0.10
2022-12-14T17:05:54.435Z,-0.20
2022-12-14T17:08:21.789Z,-0.20
2022-12-14T17:10:49.069Z,-0.20
2022-12-14T17:13:16.312Z,-0.20
2022-12-14T17:16:01.887Z,-0.10
2022-12-14T17:18:39.724Z,-0.20
2022-12-14T17:21:10.669Z,-0.30
2022-12-14T17:23:40.509Z,-0.30
2022-12-14T17:26:29.373Z,-0.30
2022-12-14T17:28:57.258Z,-0.30
2022-12-14T17:31:27.315Z,-0.30
2022-12-14T17:33:56.679Z,-0.20
2022-12-14T17:36:24.518Z,-0.20
2022-12-14T17:38:52.187Z,-0.20
2022-12-14T17:41:26.686Z,-0.20
2022-12-14T17:43:58.845Z,-0.10
2022-12-14T17:46:26.739Z,-0.20
2022-12-14T17:48:54.047Z,-0.20
2022-12-14T17:51:30.093Z,-0.50
2022-12-14T17:53:59.547Z,-0.50
2022-12-14T17:56:26.775Z,-0.40
2022-12-14T17:58:53.885Z,-0.50
2022-12-14T18:01:25.731Z,-0.60
2022-12-14T18:03:53.153Z,-0.60
2022-12-14T18:06:20.245Z,-0.70
2022-12-14T18:08:48.951Z,-0.60
2022-12-14T18:11:22.021Z,-1.00
2022-12-14T18:13:49.653Z,-1.00
2022-12-14T18:16:22.100Z,-0.90
2022-12-14T18:18:49.784Z,-0.80
2022-12-14T18:21:29.545Z,-0.70
2022-12-14T18:23:57.042Z,-0.70
2022-12-14T18:26:26.977Z,-1.00
2022-12-14T18:28:55.455Z,-1.10
2022-12-14T18:31:36.084Z,-1.00
2022-12-14T18:34:04.804Z,-0.80
2022-12-14T18:36:32.084Z,-0.80
2022-12-14T18:38:59.510Z,-0.80
2022-12-14T18:41:27.594Z,-0.90
2022-12-14T18:43:55.944Z,-0.90
2022-12-14T18:46:24.250Z,-0.90
2022-12-14T18:48:51.448Z,-1.00
2022-12-14T18:51:23.571Z,-0.80
2022-12-14T18:53:51.567Z,-0.80
2022-12-14T18:56:19.663Z,-1.00
2022-12-14T18:58:47.533Z,-0.90
2022-12-14T19:01:19.484Z,-0.90
2022-12-14T19:03:47.535Z,-1.00
2022-12-14T19:06:43.630Z,-1.20
2022-12-14T19:09:05.331Z,-1.20
2022-12-14T19:11:38.973Z,-1.10
2022-12-14T19:14:06.915Z,-1.10
2022-12-14T19:16:34.378Z,-1.10
2022-12-14T19:19:01.634Z,-1.10
2022-12-14T19:21:29.805Z,-1.10
2022-12-14T19:23:59.510Z,-1.10
2022-12-14T19:26:28.595Z,-1.10
2022-12-14T19:28:56.262Z,-0.90
2022-12-14T19:31:23.510Z,-1.00
2022-12-14T19:33:50.977Z,-1.00
2022-12-14T19:36:18.371Z,-1.00
2022-12-14T19:38:49.595Z,-1.10
2022-12-14T19:41:20.399Z,-1.10
2022-12-14T19:43:48.431Z,-1.30
2022-12-14T19:46:16.424Z,-1.30
2022-12-14T19:48:44.354Z,-1.20
2022-12-14T19:51:13.314Z,-1.20
2022-12-14T19:53:42.940Z,-1.20
2022-12-14T19:56:10.929Z,-1.30
2022-12-14T19:58:38.161Z,-1.30
2022-12-14T20:01:10.924Z,-1.10
2022-12-14T20:03:41.980Z,-1.10
2022-12-14T20:06:10.143Z,-1.20
2022-12-14T20:08:37.689Z,-1.40
2022-12-14T20:11:10.993Z,-1.40
2022-12-14T20:13:38.672Z,-1.50
2022-12-14T20:16:06.279Z,-1.70
2022-12-14T20:18:33.782Z,-1.60
2022-12-14T20:21:06.869Z,-1.40
2022-12-14T20:23:36.271Z,-1.50
2022-12-14T20:26:14.887Z,-1.50
2022-12-14T20:28:42.474Z,-1.50
2022-12-14T20:31:15.084Z,-1.50
2022-12-14T20:33:45.116Z,-1.50
2022-12-14T20:36:13.550Z,-1.60
2022-12-14T20:38:41.091Z,-1.80
2022-12-14T20:41:14.520Z,-1.90
2022-12-14T20:43:44.912Z,-1.90
2022-12-14T20:46:34.462Z,-1.80
2022-12-14T20:49:09.398Z,-1.80
2022-12-14T20:51:39.353Z,-1.90
2022-12-14T20:54:10.882Z,-2.10
2022-12-14T20:56:39.058Z,-2.20
2022-12-14T20:59:07.911Z,-2.40
2022-12-14T21:01:38.162Z,-2.50
2022-12-14T21:04:07.463Z,-2.50
2022-12-14T21:06:40.676Z,-2.50
2022-12-14T21:09:12.105Z,-2.60
2022-12-14T21:12:08.014Z,-2.90
2022-12-14T21:14:44.772Z,-3.10
2022-12-14T21:17:12.016Z,-3.20
2022-12-14T21:19:40.080Z,-3.30
2022-12-14T21:22:12.585Z,-3.40
2022-12-14T21:27:30.273Z,-3.40
2022-12-14T21:29:57.401Z,-3.40
2022-12-14T21:32:24.585Z,-3.50
2022-12-14T21:34:52.086Z,-3.60
2022-12-14T21:37:20.372Z,-3.60
2022-12-14T21:39:54.535Z,-3.60
2022-12-14T21:42:25.971Z,-3.70
2022-12-14T21:44:54.444Z,-3.70
2022-12-14T21:47:28.400Z,-3.80
2022-12-14T21:49:56.486Z,-3.90
2022-12-14T21:52:27.251Z,-3.90
2022-12-14T21:54:54.784Z,-4.00
2022-12-14T21:57:49.823Z,-4.00
2022-12-14T22:00:18.284Z,-4.00
2022-12-14T22:02:45.648Z,-4.10
2022-12-14T22:05:13.218Z,-4.20
2022-12-14T22:07:40.485Z,-4.10
2022-12-14T22:10:08.302Z,-4.20
2022-12-14T22:12:35.501Z,-4.30
2022-12-14T22:15:02.719Z,-4.30
2022-12-14T22:17:29.787Z,-4.30
2022-12-14T22:19:56.865Z,-4.30
2022-12-14T22:22:23.963Z,-4.30
2022-12-14T22:24:51.379Z,-4.30
2022-12-14T22:27:19.681Z,-4.30
2022-12-14T22:29:46.927Z,-4.30
2022-12-14T22:32:14.983Z,-4.30
2022-12-14T22:34:42.374Z,-4.30
2022-12-14T22:37:09.880Z,-4.20
2022-12-14T22:39:37.020Z,-4.30
2022-12-14T22:42:04.232Z,-4.20
2022-12-14T22:44:31.261Z,-4.30
2022-12-14T22:46:58.445Z,-4.30
2022-12-14T22:49:25.483Z,-4.40
2022-12-14T22:51:52.704Z,-4.50
2022-12-14T22:54:27.912Z,-4.50
2022-12-14T22:56:58.386Z,-4.50
2022-12-14T22:59:43.459Z,-4.50
2022-12-14T23:02:10.800Z,-4.60
2022-12-14T23:04:39.096Z,-4.60
2022-12-14T23:07:06.679Z,-4.60
2022-12-14T23:09:53.205Z,-4.60
2022-12-14T23:12:39.152Z,-4.60
2022-12-14T23:15:24.994Z,-4.70
2022-12-14T23:18:18.957Z,-4.70
2022-12-14T23:21:04.463Z,-4.60
2022-12-14T23:23:50.352Z,-4.60
2022-12-14T23:26:36.334Z,-4.60
2022-12-14T23:29:22.270Z,-4.50
2022-12-14T23:32:07.995Z,-4.60
2022-12-14T23:34:53.586Z,-4.60
2022-12-14T23:37:38.985Z,-4.50
2022-12-14T23:40:25.582Z,-4.50
2022-12-14T23:43:11.589Z,-4.50
2022-12-14T23:45:56.991Z,-4.70
2022-12-14T23:48:42.859Z,-4.70
2022-12-14T23:51:28.284Z,-4.70
2022-12-14T23:54:13.716Z,-4.70
2022-12-14T23:56:59.238Z,-4.80
2022-12-14T23:59:44.627Z,-4.80
